Main page
METAR-TAF:

METAR-TAF

Airports :

Lubbock Preston Smith International Airport

Lubbock, Texas, United States

latitude: 33-40-03N, longitude: 101-49-17W, elevation: 3280 ft

Current weather observation

The report was made 29 minutes ago, at 02:53 UTC
Wind 16 mph from the East/Southeast
Temperature 41°F
Humidity 41%
Pressure 29.96 in. Hg
Visibility: 10 miles
Scattered clouds at a height of 10000 ft

METAR: KLBB 180253Z 12014KT 10SM SCT100 05/M07 A2996 RMK AO2 SLP147 T00501072 53020

Time: 21:22 (03:22 UTC)

Forecast

The report was made 4 hours and 2 minutes ago, at 23:20 UTC
Forecast valid from 18 at 00 UTC to 18 at 24 UTC
Wind 10 mph from the South
Visibility: 6 miles
Few clouds at a height of 25000 ft
From 18 at 0200 UTC
Wind 18 mph from the East/Southeast
Visibility: 6 miles
Few clouds at a height of 25000 ft

TAF: KLBB 172320Z 1800/1824 17009KT P6SM FEW250 FM180200 12016KT P6SM FEW250

Weather observations and forecasts of more than 4000 airports (METAR and TAF reports).

The available stations are represented by yellow and red dots on the map.

Hover mouse over dot to see the name of the station.

Then click to see weather observations and forecasts.

To change the map : click on the green buttons with a black cross to zoom in, on the green button with a dash to zoom out, or on the green arrows for adjacent maps.


METAR-TAF: